Burney, Indiana
Current Conditions -  °F | °C
As of 11:50 AM on Friday 19 Dec 2014 (Local Time) from KBAK Reporting Station
Overcast Overcast  
Wind Chill: 23°   Ceiling: 2600
Heat Index: 28°   Visibility: 10mi
Dew Point: 25°   Wind: 5mph
Humidity: 86%   Direction: 10°N
Pressure: 30.3"   Gusts: NA
Location:  39.3206°N, 85.4768°W
Report Text: KBAK 191650Z 01004KT 10SM SCT015 OVC026 M02/M04 A3030
Loading
Personal Weather Stations






























Interactive Weather Map New forecast layout! Learn more

10-Day Weather Forecast

Advertisements
Track Severe Weather on mobile